createdAt,value
2023-09-23T00:01:16.722Z,3.00
2023-09-23T00:03:44.722Z,3.47
2023-09-23T00:06:11.697Z,3.28
2023-09-23T00:08:40.772Z,4.10
2023-09-23T00:11:09.336Z,3.35
2023-09-23T00:13:37.020Z,3.75
2023-09-23T00:16:12.572Z,3.42
2023-09-23T00:18:39.592Z,3.50
2023-09-23T00:21:06.917Z,3.33
2023-09-23T00:23:33.896Z,2.92
2023-09-23T00:26:02.385Z,3.30
2023-09-23T00:28:31.636Z,3.30
2023-09-23T00:31:13.697Z,3.33
2023-09-23T00:33:40.833Z,2.90
2023-09-23T00:36:10.171Z,3.33
2023-09-23T00:38:38.601Z,3.20
2023-09-23T00:41:12.414Z,2.92
2023-09-23T00:43:39.493Z,3.15
2023-09-23T00:46:06.993Z,3.25
2023-09-23T00:48:41.182Z,3.30
2023-09-23T00:51:08.695Z,3.72
2023-09-23T00:53:37.094Z,3.47
2023-09-23T00:56:04.691Z,3.30
2023-09-23T00:58:31.809Z,3.28
2023-09-23T01:00:59.346Z,3.28
2023-09-23T01:03:26.539Z,3.25
2023-09-23T01:06:15.654Z,2.95
2023-09-23T01:08:47.086Z,3.50
2023-09-23T01:11:15.784Z,3.10
2023-09-23T01:13:44.399Z,3.20
2023-09-23T01:16:14.855Z,3.80
2023-09-23T01:18:47.223Z,3.40
2023-09-23T01:21:14.358Z,4.35
2023-09-23T01:23:45.100Z,4.45
2023-09-23T01:26:15.618Z,4.30
2023-09-23T01:28:42.636Z,4.40
2023-09-23T01:31:09.660Z,4.53
2023-09-23T01:33:37.095Z,4.68
2023-09-23T01:36:04.924Z,4.50
2023-09-23T01:38:32.728Z,4.50
2023-09-23T01:41:03.202Z,3.90
2023-09-23T01:43:30.434Z,3.63
2023-09-23T01:46:04.004Z,3.83
2023-09-23T01:48:31.237Z,3.80
2023-09-23T01:51:01.262Z,3.30
2023-09-23T01:53:29.533Z,3.25
2023-09-23T01:55:56.939Z,2.97
2023-09-23T01:58:24.206Z,2.55
2023-09-23T02:00:52.519Z,2.33
2023-09-23T02:03:19.623Z,2.83
2023-09-23T02:05:48.186Z,1.83
2023-09-23T02:08:17.081Z,2.25
2023-09-23T02:10:47.325Z,1.75
2023-09-23T02:13:14.470Z,1.90
2023-09-23T02:15:41.563Z,2.20
2023-09-23T02:18:08.545Z,2.60
2023-09-23T02:20:35.946Z,2.38
2023-09-23T02:23:03.837Z,3.50
2023-09-23T02:25:30.740Z,3.38
2023-09-23T02:27:58.328Z,3.22
2023-09-23T02:30:26.073Z,3.35
2023-09-23T02:32:53.144Z,3.05
2023-09-23T02:35:20.295Z,4.25
2023-09-23T02:37:51.989Z,3.35
2023-09-23T02:40:19.712Z,2.88
2023-09-23T02:42:48.989Z,3.75
2023-09-23T02:45:18.683Z,3.65
2023-09-23T02:47:46.413Z,3.88
2023-09-23T02:50:15.676Z,3.72
2023-09-23T02:52:46.217Z,3.63
2023-09-23T02:55:16.650Z,3.00
2023-09-23T02:57:51.219Z,3.20
2023-09-23T03:00:21.003Z,3.70
2023-09-23T03:02:56.542Z,3.03
2023-09-23T03:05:30.223Z,3.10
2023-09-23T03:07:59.877Z,3.58
2023-09-23T03:10:35.627Z,3.58
2023-09-23T03:13:06.888Z,3.28
2023-09-23T03:16:07.331Z,3.13
2023-09-23T03:18:35.743Z,3.38
2023-09-23T03:21:10.024Z,3.17
2023-09-23T03:23:41.556Z,3.10
2023-09-23T03:26:10.187Z,3.42
2023-09-23T03:28:39.987Z,3.15
2023-09-23T03:31:10.180Z,4.28
2023-09-23T03:33:38.310Z,3.63
2023-09-23T03:36:06.889Z,4.47
2023-09-23T03:38:34.441Z,5.18
2023-09-23T03:41:03.510Z,5.93
2023-09-23T03:43:30.759Z,5.78
2023-09-23T03:45:57.791Z,5.10
2023-09-23T03:48:24.756Z,6.47
2023-09-23T03:50:55.322Z,7.20
2023-09-23T03:53:23.427Z,7.45
2023-09-23T03:55:53.713Z,6.63
2023-09-23T03:58:20.783Z,7.50
2023-09-23T04:00:48.478Z,6.05
2023-09-23T04:03:15.998Z,6.63
2023-09-23T04:05:43.101Z,7.00
2023-09-23T04:08:10.590Z,7.40
2023-09-23T04:10:41.081Z,7.43
2023-09-23T04:13:08.382Z,7.60
2023-09-23T04:15:35.339Z,7.43
2023-09-23T04:18:06.885Z,7.68
2023-09-23T04:20:33.971Z,8.05
2023-09-23T04:23:01.016Z,8.50
2023-09-23T04:25:28.022Z,7.55
2023-09-23T04:27:55.704Z,8.40
2023-09-23T04:30:23.366Z,7.82
2023-09-23T04:32:51.091Z,7.35
2023-09-23T04:35:18.229Z,8.55
2023-09-23T04:37:45.598Z,8.35
2023-09-23T04:40:14.477Z,9.25
2023-09-23T04:42:42.983Z,8.05
2023-09-23T04:45:11.565Z,7.80
2023-09-23T04:47:39.526Z,7.68
2023-09-23T04:50:08.695Z,7.82
2023-09-23T04:52:36.535Z,7.25
2023-09-23T04:55:03.722Z,7.55
2023-09-23T04:57:30.833Z,8.18
2023-09-23T04:59:57.849Z,9.43
2023-09-23T05:02:24.874Z,8.27
2023-09-23T05:04:54.697Z,7.82
2023-09-23T05:07:22.700Z,7.53
2023-09-23T05:09:50.687Z,8.20
2023-09-23T05:12:18.695Z,10.02
2023-09-23T05:14:46.080Z,10.52
2023-09-23T05:17:16.797Z,10.60
2023-09-23T05:19:44.834Z,10.70
2023-09-23T05:22:11.891Z,10.75
2023-09-23T05:24:39.707Z,11.65
2023-09-23T05:27:06.790Z,13.93
2023-09-23T05:29:33.734Z,12.07
2023-09-23T05:32:01.778Z,13.05
2023-09-23T05:34:28.747Z,13.25
2023-09-23T05:36:55.702Z,13.55
2023-09-23T05:39:22.734Z,14.10
2023-09-23T05:41:53.059Z,14.60
2023-09-23T05:44:22.617Z,15.55
2023-09-23T05:46:49.867Z,14.68
2023-09-23T05:49:16.874Z,16.88
2023-09-23T05:51:45.314Z,15.25
2023-09-23T05:54:12.669Z,14.38
2023-09-23T05:56:39.915Z,15.55
2023-09-23T05:59:09.285Z,15.20
2023-09-23T06:01:39.969Z,15.35
2023-09-23T06:04:06.978Z,17.02
2023-09-23T06:06:34.192Z,14.52
2023-09-23T06:09:01.366Z,15.75
2023-09-23T06:11:28.299Z,17.02
2023-09-23T06:13:55.225Z,17.40
2023-09-23T06:16:22.230Z,17.85
2023-09-23T06:18:49.177Z,18.58
2023-09-23T06:21:16.219Z,19.27
2023-09-23T06:23:43.592Z,18.15
2023-09-23T06:26:11.476Z,17.40
2023-09-23T06:28:38.636Z,17.38
2023-09-23T06:31:09.793Z,18.13
2023-09-23T06:33:36.962Z,17.75
2023-09-23T06:36:05.548Z,19.73
2023-09-23T06:38:35.417Z,16.83
2023-09-23T06:41:02.355Z,19.85
2023-09-23T06:43:29.957Z,18.77
2023-09-23T06:46:00.707Z,18.58
2023-09-23T06:48:27.930Z,17.75
2023-09-23T06:51:02.142Z,19.13
2023-09-23T06:53:30.932Z,17.75
2023-09-23T06:55:58.059Z,16.73
2023-09-23T06:58:24.994Z,15.75
2023-09-23T07:00:52.064Z,17.00
2023-09-23T07:03:19.259Z,17.77
2023-09-23T07:05:47.176Z,15.63
2023-09-23T07:08:15.081Z,16.08
2023-09-23T07:10:42.523Z,16.13
2023-09-23T07:13:13.202Z,16.58
2023-09-23T07:15:41.617Z,16.08
2023-09-23T07:18:09.493Z,17.08
2023-09-23T07:20:36.824Z,15.95
2023-09-23T07:23:04.006Z,14.80
2023-09-23T07:25:31.402Z,15.25
2023-09-23T07:28:01.408Z,15.18
2023-09-23T07:30:28.523Z,15.52
2023-09-23T07:32:55.427Z,14.57
2023-09-23T07:35:22.333Z,13.70
2023-09-23T07:37:49.357Z,14.88
2023-09-23T07:40:16.634Z,15.18
2023-09-23T07:42:43.543Z,13.43
2023-09-23T07:45:11.036Z,14.30
2023-09-23T07:47:38.066Z,13.18
2023-09-23T07:50:05.520Z,12.38
2023-09-23T07:52:41.783Z,13.60
2023-09-23T07:55:09.157Z,13.52
2023-09-23T07:57:36.247Z,11.82
2023-09-23T08:00:04.460Z,12.25
2023-09-23T08:02:31.443Z,11.57
2023-09-23T08:04:58.496Z,11.60
2023-09-23T08:07:26.026Z,12.38
2023-09-23T08:09:53.196Z,10.45
2023-09-23T08:12:20.063Z,11.75
2023-09-23T08:14:46.987Z,11.57
2023-09-23T08:17:15.687Z,9.85
2023-09-23T08:19:42.731Z,10.32
2023-09-23T08:22:11.536Z,9.48
2023-09-23T08:24:41.193Z,8.43
2023-09-23T08:27:08.109Z,10.18
2023-09-23T08:29:35.081Z,9.95
2023-09-23T08:32:02.606Z,9.38
2023-09-23T08:34:29.682Z,8.90
2023-09-23T08:36:56.591Z,9.63
2023-09-23T08:39:23.509Z,9.40
2023-09-23T08:41:53.564Z,8.48
2023-09-23T08:44:24.885Z,7.57
2023-09-23T08:46:53.189Z,9.23
2023-09-23T08:49:23.190Z,8.65
2023-09-23T08:51:58.002Z,9.18
2023-09-23T08:54:30.140Z,7.82
2023-09-23T08:56:57.539Z,9.75
2023-09-23T08:59:24.657Z,7.63
2023-09-23T09:01:51.675Z,7.45
2023-09-23T09:04:18.671Z,9.57
2023-09-23T09:06:50.039Z,8.15
2023-09-23T09:09:20.664Z,7.68
2023-09-23T09:11:53.156Z,7.65
2023-09-23T09:14:20.218Z,6.95
2023-09-23T09:16:47.282Z,7.05
2023-09-23T09:19:14.481Z,7.18
2023-09-23T09:21:42.566Z,6.60
2023-09-23T09:24:12.727Z,6.60
2023-09-23T09:26:39.727Z,7.00
2023-09-23T09:29:06.936Z,7.18
2023-09-23T09:31:36.363Z,6.35
2023-09-23T09:34:10.895Z,7.03
2023-09-23T09:36:39.844Z,6.32
2023-09-23T09:39:09.629Z,6.47
2023-09-23T09:42:01.692Z,6.35
2023-09-23T09:44:30.170Z,6.25
2023-09-23T09:46:58.246Z,5.93
2023-09-23T09:49:25.867Z,5.57
2023-09-23T09:51:53.361Z,5.40
2023-09-23T09:54:26.465Z,4.65
2023-09-23T09:56:57.034Z,5.00
2023-09-23T09:59:28.559Z,4.07
2023-09-23T10:02:00.717Z,4.40
2023-09-23T10:04:33.230Z,4.97
2023-09-23T10:07:00.406Z,3.95
2023-09-23T10:09:31.612Z,3.53
2023-09-23T14:55:16.442Z,0.60
2023-09-23T14:57:44.487Z,0.50
2023-09-23T15:00:12.212Z,0.43
2023-09-23T15:02:41.642Z,0.40
2023-09-23T15:05:10.982Z,0.20
2023-09-23T15:07:38.139Z,1.83
2023-09-23T15:10:06.757Z,0.57
2023-09-23T15:12:36.851Z,0.70
2023-09-23T15:15:08.115Z,0.50
2023-09-23T15:17:39.628Z,0.40
2023-09-23T15:20:11.730Z,0.30
2023-09-23T15:22:39.877Z,0.68
2023-09-23T15:25:10.887Z,0.57
2023-09-23T15:27:38.679Z,0.47
2023-09-23T15:30:14.281Z,0.40
2023-09-23T15:32:41.275Z,0.60
2023-09-23T15:35:09.189Z,0.45
2023-09-23T15:37:36.565Z,0.50
2023-09-23T15:40:05.236Z,0.57
2023-09-23T15:42:32.995Z,0.60
2023-09-23T15:44:59.868Z,0.45
2023-09-23T15:47:26.894Z,0.45
2023-09-23T15:49:54.253Z,0.60
2023-09-23T15:52:22.759Z,0.60
2023-09-23T15:54:49.721Z,0.47
2023-09-23T15:57:16.885Z,0.50
2023-09-23T15:59:43.874Z,0.43
2023-09-23T16:02:10.883Z,0.50
2023-09-23T16:04:37.814Z,0.68
2023-09-23T16:07:05.057Z,0.60
2023-09-23T16:09:32.563Z,0.60
2023-09-23T16:11:59.489Z,0.80
2023-09-23T16:14:26.516Z,0.82
2023-09-23T16:16:53.550Z,0.70
2023-09-23T16:19:23.604Z,0.57
2023-09-23T16:21:51.506Z,0.35
2023-09-23T16:24:18.594Z,0.45
2023-09-23T16:26:45.567Z,1.23
2023-09-23T16:29:12.623Z,0.40
2023-09-23T16:31:41.779Z,0.40
2023-09-23T16:37:19.769Z,0.52
2023-09-23T16:39:46.900Z,0.52
2023-09-23T16:42:13.824Z,0.40
2023-09-23T16:44:44.107Z,0.30
2023-09-23T16:47:12.639Z,0.47
2023-09-23T16:49:39.717Z,0.50
2023-09-23T16:52:09.219Z,0.63
2023-09-23T16:54:40.682Z,0.63
2023-09-23T16:57:07.715Z,0.73
2023-09-23T16:59:34.618Z,0.50
2023-09-23T17:02:01.556Z,0.30
2023-09-23T17:04:28.818Z,0.63
2023-09-23T17:06:55.718Z,0.20
2023-09-23T17:09:22.628Z,0.20
2023-09-23T17:11:50.677Z,0.20
2023-09-23T17:14:17.696Z,0.50
2023-09-23T17:16:44.714Z,0.50
2023-09-23T17:19:11.720Z,0.30
2023-09-23T17:21:38.761Z,0.30
2023-09-23T17:24:05.864Z,0.60
2023-09-23T17:26:32.862Z,0.50
2023-09-23T17:29:00.690Z,0.30
2023-09-23T17:31:28.170Z,0.65
2023-09-23T17:33:55.627Z,0.40
2023-09-23T17:36:22.552Z,0.60
2023-09-23T17:38:49.819Z,0.50
2023-09-23T17:41:19.592Z,0.57
2023-09-23T17:43:46.530Z,0.50
2023-09-23T17:46:13.512Z,0.40
2023-09-23T17:48:40.528Z,0.80
2023-09-23T17:51:07.857Z,0.65
2023-09-23T17:53:36.072Z,0.95
2023-09-23T17:56:03.896Z,0.60
2023-09-23T17:58:31.101Z,0.65
2023-09-23T18:00:58.100Z,0.45
2023-09-23T18:03:27.504Z,0.65
2023-09-23T18:05:55.386Z,0.55
2023-09-23T18:08:22.466Z,0.80
2023-09-23T18:10:51.194Z,0.45
2023-09-23T18:13:18.094Z,0.52
2023-09-23T18:15:45.132Z,1.33
2023-09-23T18:18:12.134Z,0.80
2023-09-23T18:20:41.358Z,0.90
2023-09-23T18:23:09.082Z,1.27
2023-09-23T18:25:37.204Z,0.98
2023-09-23T18:28:04.806Z,0.80
2023-09-23T18:30:32.938Z,1.00
2023-09-23T18:32:59.960Z,0.93
2023-09-23T18:35:27.110Z,0.90
2023-09-23T18:37:54.137Z,0.90
2023-09-23T18:40:21.007Z,0.80
2023-09-23T18:42:48.270Z,0.88
2023-09-23T18:45:15.236Z,0.88
2023-09-23T18:47:42.645Z,1.05
2023-09-23T18:50:11.009Z,1.15
2023-09-23T18:52:38.970Z,1.20
2023-09-23T18:55:06.254Z,0.95
2023-09-23T18:57:33.626Z,1.20
2023-09-23T19:00:00.517Z,1.60
2023-09-23T19:02:27.599Z,1.60
2023-09-23T19:04:55.000Z,1.80
2023-09-23T19:07:21.865Z,1.98
2023-09-23T19:09:50.154Z,1.88
2023-09-23T19:12:17.047Z,1.70
2023-09-23T19:14:44.048Z,1.75
2023-09-23T19:17:11.409Z,1.52
2023-09-23T19:19:38.394Z,1.60
2023-09-23T19:22:05.675Z,1.60
2023-09-23T19:24:32.556Z,1.02
2023-09-23T19:27:01.427Z,1.35
2023-09-23T19:29:28.382Z,1.30
2023-09-23T19:31:57.076Z,0.90
2023-09-23T19:34:27.571Z,1.25
2023-09-23T19:36:57.040Z,1.15
2023-09-23T19:39:29.550Z,1.05
2023-09-23T19:41:57.627Z,1.10
2023-09-23T19:44:24.605Z,0.93
2023-09-23T19:46:52.790Z,1.20
2023-09-23T19:49:19.709Z,1.05
2023-09-23T19:51:46.618Z,1.08
2023-09-23T19:54:13.911Z,1.20
2023-09-23T19:56:40.876Z,1.30
2023-09-23T19:59:08.441Z,1.10
2023-09-23T20:01:35.840Z,1.17
2023-09-23T20:04:02.873Z,1.00
2023-09-23T20:06:30.549Z,0.95
2023-09-23T20:08:58.018Z,0.85
2023-09-23T20:11:25.529Z,1.50
2023-09-23T20:13:55.440Z,1.40
2023-09-23T20:16:24.215Z,1.77
2023-09-23T20:18:51.966Z,1.60
2023-09-23T20:21:18.856Z,1.65
2023-09-23T20:23:45.926Z,1.30
2023-09-23T20:26:13.842Z,1.75
2023-09-23T20:28:41.797Z,1.95
2023-09-23T20:31:08.837Z,1.77
2023-09-23T20:33:35.762Z,1.67
2023-09-23T20:36:02.787Z,1.77
2023-09-23T20:38:29.991Z,1.95
2023-09-23T20:41:03.979Z,1.80
2023-09-23T20:43:31.888Z,1.95
2023-09-23T20:45:59.006Z,1.75
2023-09-23T20:48:26.099Z,2.00
2023-09-23T20:50:53.223Z,1.45
2023-09-23T20:53:20.331Z,1.80
2023-09-23T20:55:47.281Z,1.95
2023-09-23T20:58:14.250Z,2.15
2023-09-23T21:00:41.222Z,2.05
2023-09-23T21:03:10.100Z,1.95
2023-09-23T21:05:37.454Z,2.25
2023-09-23T21:08:04.554Z,2.53
2023-09-23T21:10:32.304Z,2.13
2023-09-23T21:12:59.189Z,1.88
2023-09-23T21:15:26.087Z,2.03
2023-09-23T21:17:54.131Z,1.95
2023-09-23T21:20:22.585Z,2.20
2023-09-23T21:22:49.541Z,2.05
2023-09-23T21:25:17.275Z,1.90
2023-09-23T21:27:44.186Z,2.35
2023-09-23T21:30:11.510Z,2.28
2023-09-23T21:32:38.499Z,2.22
2023-09-23T21:35:08.655Z,2.40
2023-09-23T21:37:35.635Z,1.88
2023-09-23T21:40:02.683Z,1.77
2023-09-23T21:42:29.605Z,1.95
2023-09-23T21:44:56.630Z,1.70
2023-09-23T21:47:23.571Z,1.98
2023-09-23T21:49:50.586Z,2.20
2023-09-23T21:52:17.407Z,2.03
2023-09-23T21:54:44.356Z,2.63
2023-09-23T21:57:11.547Z,2.35
2023-09-23T21:59:38.895Z,2.58
2023-09-23T22:02:08.055Z,2.38
2023-09-23T22:04:35.251Z,2.22
2023-09-23T22:07:02.978Z,2.78
2023-09-23T22:09:30.918Z,2.50
2023-09-23T22:12:00.842Z,3.10
2023-09-23T22:14:27.968Z,3.35
2023-09-23T22:16:55.972Z,2.78
2023-09-23T22:19:23.934Z,2.70
2023-09-23T22:21:52.596Z,3.08
2023-09-23T22:24:22.717Z,2.42
2023-09-23T22:26:54.113Z,2.05
2023-09-23T22:29:21.796Z,3.17
2023-09-23T22:31:48.789Z,2.58
2023-09-23T22:34:15.854Z,3.35
2023-09-23T22:36:42.861Z,2.35
2023-09-23T22:39:13.409Z,3.22
2023-09-23T22:41:40.929Z,2.83
2023-09-23T22:44:08.143Z,2.60
2023-09-23T22:46:36.582Z,2.50
2023-09-23T22:49:03.882Z,2.58
2023-09-23T22:51:31.890Z,2.90
2023-09-23T22:53:58.983Z,2.50
2023-09-23T22:56:26.413Z,2.58
2023-09-23T22:58:53.395Z,2.28
2023-09-23T23:01:20.483Z,2.45
2023-09-23T23:03:47.726Z,2.83
2023-09-23T23:06:15.054Z,2.88
2023-09-23T23:08:42.839Z,2.47
2023-09-23T23:11:10.647Z,2.33
2023-09-23T23:13:38.330Z,3.47
2023-09-23T23:16:10.646Z,2.63
2023-09-23T23:18:38.927Z,3.03
2023-09-23T23:21:05.995Z,2.67
2023-09-23T23:23:32.978Z,3.03
2023-09-23T23:26:05.105Z,3.20
2023-09-23T23:28:34.995Z,2.78
2023-09-23T23:31:02.521Z,2.53
2023-09-23T23:33:29.646Z,2.88
2023-09-23T23:36:00.748Z,3.03
2023-09-23T23:38:31.559Z,2.50
2023-09-23T23:41:02.048Z,2.67
2023-09-23T23:43:28.885Z,3.30
2023-09-23T23:46:00.079Z,3.25
2023-09-23T23:48:31.807Z,3.80
2023-09-23T23:51:07.373Z,2.78
2023-09-23T23:53:35.370Z,3.05
2023-09-23T23:56:06.777Z,3.40
2023-09-23T23:58:34.373Z,3.42
